Flight Track Log - Related Links

Times and Time Zones

All times are in EDT time to prevent confusion due to time zone crossing. See the N3690D flight status page for this flight to view local times or setup timezone preferences in your user account.

Time Position Orientation Groundspeed Altitude Reporting Facility
EDT Latitude Longitude Course Direction KTS MPH feet Rate Location/Type
Wed 08:19:34 AM 42.7653 -73.8061 318° Northwest 116 133 800  Level Boston Center
Wed 08:20:10 AM 42.7817 -73.8261 318° Northwest 130 150 1,500 990 Climbing Boston Center
Wed 08:21:11 AM 42.7747 -73.8742 259° West 133 153 2,400 942 Climbing Boston Center
Wed 08:22:11 AM 42.7639 -73.9247 254° West 152 175 3,400 1,041 Climbing Boston Center
Wed 08:23:12 AM 42.7403 -73.9722 236° Southwest 142 163 4,500 1,033 Climbing Boston Center
Wed 08:24:13 AM 42.7189 -74.0142 235° Southwest 139 160 5,500 939 Climbing Boston Center
Wed 08:25:07 AM 42.6953 -74.0531 230° Southwest 148 170 6,300 936 Climbing Boston Center
Wed 08:26:02 AM 42.6719 -74.0919 231° Southwest 148 170 7,200 991 Climbing Boston Center
Wed 08:27:02 AM 42.6461 -74.1394 234° Southwest 150 173 8,200 968 Climbing Boston Center
Wed 08:27:35 AM 42.6333 -74.1644 235° Southwest 146 168 8,700 984 Climbing Boston Center
Wed 08:28:03 AM 42.6225 -74.1783 223° Southwest 142 163 9,200 900 Climbing Boston Center
Wed 08:28:35 AM 42.6119 -74.2006 237° Southwest 146 168 9,600 587 Climbing Boston Center
Wed 08:29:35 AM 42.5839 -74.2478 231° Southwest 151 174 10,100 227 Climbing Boston Center
Wed 08:30:47 AM 42.5561 -74.2975 233° Southwest 175 201 10,100  Level Boston Center
Wed 08:31:47 AM 42.5153 -74.3667 231° Southwest 193 222 10,100  Level Boston Center
Wed 08:32:47 AM 42.4808 -74.4306 234° Southwest 198 228 10,100  Level Boston Center
Wed 08:33:47 AM 42.4508 -74.4831 232° Southwest 198 228 10,100  Level Boston Center
Wed 08:34:47 AM 42.4142 -74.5436 231° Southwest 198 228 10,100  Level Boston Center
Wed 08:35:47 AM 42.3861 -74.5933 233° Southwest 198 228 10,100 100 Level Boston Center
Wed 08:36:47 AM 42.3517 -74.6567 234° Southwest 198 228 10,300 400 Climbing Boston Center
Wed 08:37:47 AM 42.3278 -74.6981 232° Southwest 185 213 10,900 550 Climbing Boston Center
Wed 08:38:47 AM 42.2997 -74.7558 237° Southwest 180 207 11,400 500 Climbing Boston Center
Wed 08:39:47 AM 42.2736 -74.8000 231° Southwest 170 196 11,900 350 Climbing Boston Center
Wed 08:40:47 AM 42.2456 -74.8494 233° Southwest 170 196 12,100 69 Climbing Boston Center
Wed 08:42:40 AM 42.1872 -74.9439 230° Southwest 170 196 12,100  Level New York Center
Wed 08:43:40 AM 42.1517 -75.0086 233° Southwest 190 219 12,100  Level New York Center
Wed 08:44:42 AM 42.1186 -75.0597 229° Southwest 190 219 12,100  Level New York Center
Wed 08:45:42 AM 42.0856 -75.1133 230° Southwest 190 219 12,100  Level New York Center
Wed 08:46:40 AM 42.0503 -75.1669 228° Southwest 190 219 12,100  Level New York Center
Wed 08:47:41 AM 42.0214 -75.2125 230° Southwest 190 219 12,100  Level New York Center
Wed 08:48:39 AM 41.9861 -75.2658 228° Southwest 196 226 12,100  Level New York Center
Wed 08:49:39 AM 41.9483 -75.3247 229° Southwest 201 231 12,100  Level New York Center
Wed 08:50:40 AM 41.9131 -75.3781 228° Southwest 201 231 12,100  Level New York Center
Wed 08:51:40 AM 41.8800 -75.4286 229° Southwest 201 231 12,100 303 Level New York Center
Wed 08:52:39 AM 41.8531 -75.4742 232° Southwest 196 226 12,700 500 Climbing New York Center
Wed 08:53:40 AM 41.8222 -75.5192 227° Southwest 185 213 13,100 198 Climbing New York Center
Wed 08:54:40 AM 41.7867 -75.5750 230° Southwest 180 207 13,100 198 Level New York Center
Wed 08:55:41 AM 41.7556 -75.6228 229° Southwest 180 207 13,500 446 Climbing New York Center
Wed 08:56:41 AM 41.7308 -75.6628 230° Southwest 174 200 14,000 305 Climbing New York Center
Wed 08:57:39 AM 41.6975 -75.7158 230° Southwest 174 200 14,100 50 Climbing New York Center
Wed 08:58:40 AM 41.6642 -75.7661 228° Southwest 180 207 14,100  Level New York Center
Wed 08:59:41 AM 41.6331 -75.8111 227° Southwest 185 213 14,100  Level New York Center
Wed 09:00:42 AM 41.5972 -75.8694 231° Southwest 185 213 14,100  Level New York Center
Wed 09:01:42 AM 41.5597 -75.9192 225° Southwest 185 213 14,100  Level New York Center
Wed 09:02:41 AM 41.5283 -75.9722 232° Southwest 185 213 14,100  Level New York Center
Wed 09:03:41 AM 41.4969 -76.0222 230° Southwest 185 213 14,100  Level New York Center
Wed 09:04:42 AM 41.4636 -76.0722 228° Southwest 185 213 14,100  Level New York Center
Wed 09:05:42 AM 41.4256 -76.1303 229° Southwest 191 220 14,100 -50 Level New York Center
Wed 09:06:42 AM 41.3897 -76.1828 228° Southwest 191 220 14,000  Descending New York Center
Wed 09:07:40 AM 41.3586 -76.2272 227° Southwest 191 220 14,100 50 Climbing New York Center
Wed 09:08:41 AM 41.3250 -76.2797 230° Southwest 191 220 14,100  Level New York Center
Wed 09:09:39 AM 41.2867 -76.3372 228° Southwest 191 220 14,100  Level New York Center
Wed 09:10:40 AM 41.2531 -76.3897 230° Southwest 197 227 14,100  Level New York Center
Wed 09:11:42 AM 41.2172 -76.4419 228° Southwest 197 227 14,100  Level New York Center
Wed 09:12:42 AM 41.1858 -76.4889 228° Southwest 197 227 14,100  Level New York Center
Wed 09:13:42 AM 41.1519 -76.5411 229° Southwest 197 227 14,100  Level New York Center
Wed 09:14:40 AM 41.1139 -76.5958 227° Southwest 197 227 14,100  Level New York Center
Wed 09:15:41 AM 41.0778 -76.6506 229° Southwest 197 227 14,100  Level New York Center
Wed 09:16:42 AM 41.0464 -76.7000 230° Southwest 202 232 14,100  Level New York Center
Wed 09:17:42 AM 41.0122 -76.7550 231° Southwest 202 232 14,100  Level New York Center
Wed 09:18:40 AM 40.9764 -76.8067 227° Southwest 202 232 14,100  Level New York Center
Wed 09:19:40 AM 40.9403 -76.8583 227° Southwest 202 232 14,100  Level New York Center
Wed 09:20:40 AM 40.9042 -76.9103 227° Southwest 202 232 14,100  Level New York Center
Wed 09:21:41 AM 40.8681 -76.9644 229° Southwest 202 232 14,100  Level New York Center
Wed 09:22:41 AM 40.8319 -77.0189 229° Southwest 202 232 14,100  Level New York Center
Wed 09:23:42 AM 40.7958 -77.0706 227° Southwest 202 232 14,100  Level New York Center
Wed 09:24:42 AM 40.7617 -77.1247 230° Southwest 202 232 14,100  Level New York Center
Wed 09:25:39 AM 40.7253 -77.1789 228° Southwest 202 232 14,100  Level New York Center
Wed 09:26:40 AM 40.6892 -77.2303 227° Southwest 202 232 14,100  Level New York Center
Wed 09:27:40 AM 40.6531 -77.2844 229° Southwest 202 232 14,100  Level New York Center
Wed 09:28:41 AM 40.6167 -77.3356 227° Southwest 202 232 14,100  Level New York Center
Wed 09:30:57 AM 40.5347 -77.4494 227° Southwest 191 220 14,100  Level Cleveland Center
Wed 09:31:57 AM 40.4967 -77.5031 227° Southwest 197 227 14,100  Level Cleveland Center
Wed 09:32:57 AM 40.4628 -77.5564 230° Southwest 197 227 14,100  Level Cleveland Center
Wed 09:33:57 AM 40.4267 -77.6128 230° Southwest 197 227 14,100  Level Cleveland Center
Wed 09:34:57 AM 40.3925 -77.6606 227° Southwest 197 227 14,100 -50 Level Cleveland Center
Wed 09:35:57 AM 40.3561 -77.7114 227° Southwest 197 227 14,000  Descending Cleveland Center
Wed 09:36:57 AM 40.3200 -77.7647 228° Southwest 197 227 14,100  Climbing Cleveland Center
Wed 09:37:57 AM 40.2858 -77.8122 227° Southwest 197 227 14,000 -50 Descending Cleveland Center
Wed 09:38:57 AM 40.2494 -77.8656 228° Southwest 197 227 14,000  Level Cleveland Center
Wed 09:39:57 AM 40.2133 -77.9186 228° Southwest 197 227 14,000 50 Level Cleveland Center
Wed 09:40:57 AM 40.1789 -77.9717 230° Southwest 197 227 14,100  Climbing Cleveland Center
Wed 09:41:57 AM 40.1428 -78.0247 228° Southwest 197 227 14,000 -50 Descending Cleveland Center
Wed 09:42:57 AM 40.1064 -78.0750 227° Southwest 197 227 14,000  Level Cleveland Center
Wed 09:43:57 AM 40.0700 -78.1278 228° Southwest 197 227 14,000  Level Cleveland Center
Wed 09:44:57 AM 40.0333 -78.1781 226° Southwest 197 227 14,000  Level Cleveland Center
Wed 09:45:57 AM 39.9992 -78.2306 230° Southwest 197 227 14,000  Level Cleveland Center
Wed 09:48:14 AM 39.9197 -78.3536 230° Southwest 205 236 14,000 -30 Level Washington Center
Wed 09:49:15 AM 39.8747 -78.4006 219° Southwest 195 224 13,900 -50 Descending Washington Center
Wed 09:50:13 AM 39.8381 -78.4503 226° Southwest 195 224 13,900  Level Washington Center
Wed 09:51:13 AM 39.8017 -78.5003 227° Southwest 195 224 13,900  Level Washington Center
Wed 09:52:13 AM 39.7669 -78.5528 229° Southwest 195 224 13,900 50 Level Washington Center
Wed 09:53:14 AM 39.7303 -78.6028 226° Southwest 195 224 14,000 50 Climbing Washington Center
Wed 09:54:14 AM 39.6936 -78.6525 226° Southwest 195 224 14,000  Level Washington Center
Wed 09:55:15 AM 39.6589 -78.7047 229° Southwest 195 224 14,000  Level Washington Center
Wed 09:56:13 AM 39.6222 -78.7569 228° Southwest 190 219 14,000 -50 Level Washington Center
Wed 09:57:14 AM 39.5853 -78.8094 228° Southwest 190 219 13,900 -50 Descending Washington Center
Wed 09:58:14 AM 39.5486 -78.8589 226° Southwest 190 219 13,900  Level Washington Center
Wed 09:59:15 AM 39.5117 -78.9083 226° Southwest 190 219 13,900  Level Washington Center
Wed 10:00:12 AM 39.4750 -78.9603 228° Southwest 190 219 13,900  Level Washington Center
Wed 10:01:13 AM 39.4381 -79.0125 228° Southwest 190 219 13,900  Level Washington Center
Wed 10:02:13 AM 39.4033 -79.0617 228° Southwest 190 219 13,900  Level Washington Center
Wed 10:03:14 AM 39.3644 -79.1108 224° Southwest 190 219 13,900  Level Washington Center
Wed 10:04:15 AM 39.3272 -79.1628 227° Southwest 190 219 13,900  Level Washington Center
Wed 10:05:15 AM 39.2925 -79.2147 229° Southwest 190 219 13,900  Level Washington Center
Wed 10:06:12 AM 39.2617 -79.2642 231° Southwest 190 219 13,900  Level Washington Center
Wed 10:07:13 AM 39.2247 -79.3133 226° Southwest 190 219 13,900  Level Washington Center
Wed 10:08:14 AM 39.1878 -79.3675 229° Southwest 201 231 13,900  Level Washington Center
Wed 10:09:15 AM 39.1506 -79.4192 227° Southwest 201 231 13,900  Level Washington Center
Wed 10:10:13 AM 39.1136 -79.4681 226° Southwest 201 231 13,900  Level Washington Center
Wed 10:11:14 AM 39.0764 -79.5194 227° Southwest 201 231 13,900  Level Washington Center
Wed 10:12:14 AM 39.0331 -79.5706 223° Southwest 201 231 13,900  Level Washington Center
Wed 10:13:15 AM 38.9936 -79.6300 230° Southwest 208 239 13,900  Level Washington Center
Wed 10:14:13 AM 38.9608 -79.6736 226° Southwest 208 239 13,900  Level Washington Center
Wed 10:15:14 AM 38.9236 -79.7250 227° Southwest 208 239 13,900  Level Washington Center
Wed 10:16:15 AM 38.8867 -79.7733 226° Southwest 208 239 13,900  Level Washington Center
Wed 10:17:13 AM 38.8494 -79.8247 227° Southwest 208 239 13,900  Level Washington Center
Wed 10:18:14 AM 38.8078 -79.8808 226° Southwest 208 239 13,900  Level Washington Center
Wed 10:19:03 AM 38.7783 -79.9139 221° Southwest 194 223 13,900  Level Indianapolis Center
Wed 10:20:05 AM 38.7408 -79.9653 227° Southwest 195 224 13,900  Level Indianapolis Center
Wed 10:21:07 AM 38.7022 -80.0167 226° Southwest 198 228 13,900  Level Indianapolis Center
Wed 10:22:09 AM 38.6644 -80.0667 226° Southwest 196 226 13,900  Level Indianapolis Center
Wed 10:23:11 AM 38.6189 -80.1269 226° Southwest 196 226 13,900 -48 Level Indianapolis Center
Wed 10:24:13 AM 38.5869 -80.1703 227° Southwest 193 222 13,800 -48 Descending Indianapolis Center
Wed 10:25:16 AM 38.5422 -80.2278 225° Southwest 196 226 13,800 49 Level Indianapolis Center
Wed 10:26:15 AM 38.5050 -80.2825 229° Southwest 208 239 13,900 50 Climbing Washington Center
Wed 10:27:15 AM 38.4672 -80.3358 228° Southwest 208 239 13,900  Level Washington Center
Wed 10:28:13 AM 38.4300 -80.3811 224° Southwest 208 239 13,900  Level Washington Center
Wed 10:29:14 AM 38.3969 -80.4294 229° Southwest 208 239 13,900 -45 Level Washington Center
Wed 10:30:25 AM 38.3486 -80.4886 224° Southwest 195 224 13,800 -45 Descending Indianapolis Center
Wed 10:31:27 AM 38.3078 -80.5383 224° Southwest 199 229 13,800  Level Indianapolis Center
Wed 10:32:29 AM 38.2706 -80.5886 227° Southwest 197 227 13,800  Level Indianapolis Center
Wed 10:33:31 AM 38.2328 -80.6383 226° Southwest 195 224 13,800  Level Indianapolis Center
Wed 10:34:33 AM 38.1958 -80.6872 226° Southwest 193 222 13,800  Level Indianapolis Center
Wed 10:35:35 AM 38.1578 -80.7378 226° Southwest 195 224 13,800  Level Indianapolis Center
Wed 10:36:37 AM 38.1200 -80.7878 226° Southwest 196 226 13,800  Level Indianapolis Center
Wed 10:37:40 AM 38.0739 -80.8481 226° Southwest 198 228 13,800  Level Indianapolis Center
Wed 10:38:42 AM 38.0350 -80.8986 226° Southwest 199 229 13,800  Level Indianapolis Center
Wed 10:39:44 AM 37.9967 -80.9478 225° Southwest 197 227 13,800  Level Indianapolis Center
Wed 10:40:46 AM 37.9581 -80.9981 226° Southwest 198 228 13,800  Level Indianapolis Center
Wed 10:41:48 AM 37.9200 -81.0464 225° Southwest 195 224 13,800  Level Indianapolis Center
Wed 10:42:50 AM 37.8822 -81.0967 226° Southwest 197 227 13,800  Level Indianapolis Center
Wed 10:43:52 AM 37.8431 -81.1467 225° Southwest 199 229 13,800 49 Level Indianapolis Center
Wed 10:44:53 AM 37.7961 -81.2056 225° Southwest 198 228 13,900 49 Climbing Indianapolis Center
Wed 10:45:55 AM 37.7606 -81.2539 227° Southwest 195 224 13,900  Level Indianapolis Center
Wed 10:46:57 AM 37.7225 -81.3008 224° Southwest 197 227 13,900  Level Indianapolis Center
Wed 10:47:59 AM 37.6781 -81.3581 226° Southwest 197 227 13,900  Level Indianapolis Center
Wed 10:49:01 AM 37.6408 -81.4058 225° Southwest 196 226 13,900  Level Indianapolis Center
Wed 10:50:03 AM 37.6042 -81.4531 226° Southwest 195 224 13,900  Level Indianapolis Center
Wed 10:51:05 AM 37.5617 -81.5064 225° Southwest 198 228 13,900  Level Indianapolis Center
Wed 10:52:06 AM 37.5247 -81.5567 227° Southwest 195 224 13,900  Level Indianapolis Center
Wed 10:53:08 AM 37.4861 -81.6058 225° Southwest 197 227 13,900  Level Indianapolis Center
Wed 10:54:10 AM 37.4469 -81.6539 224° Southwest 198 228 13,900  Level Indianapolis Center
Wed 10:55:12 AM 37.4086 -81.7036 226° Southwest 197 227 13,900  Level Indianapolis Center
Wed 10:56:13 AM 37.3631 -81.7617 225° Southwest 200 230 13,900  Level Indianapolis Center
Wed 10:57:15 AM 37.3242 -81.8108 225° Southwest 198 228 13,900  Level Indianapolis Center
Wed 10:58:17 AM 37.2864 -81.8589 225° Southwest 195 224 13,900  Level Indianapolis Center
Wed 10:59:18 AM 37.2467 -81.9078 224° Southwest 197 227 13,900  Level Indianapolis Center
Wed 11:00:20 AM 37.2083 -81.9578 226° Southwest 197 227 13,900  Level Indianapolis Center
Wed 11:01:22 AM 37.1689 -82.0075 225° Southwest 200 230 13,900  Level Indianapolis Center
Wed 11:02:23 AM 37.1306 -82.0544 224° Southwest 195 224 13,900  Level Indianapolis Center
Wed 11:03:25 AM 37.0858 -82.1114 225° Southwest 195 224 13,900  Level Indianapolis Center
Wed 11:04:27 AM 37.0467 -82.1589 224° Southwest 195 224 13,900 -49 Level Indianapolis Center
Wed 11:05:28 AM 37.0092 -82.2078 226° Southwest 195 224 13,800 -49 Descending Indianapolis Center
Wed 11:06:30 AM 36.9700 -82.2547 224° Southwest 194 223 13,800  Level Indianapolis Center
Wed 11:07:32 AM 36.9311 -82.3036 225° Southwest 196 226 13,800  Level Indianapolis Center
Wed 11:08:33 AM 36.8931 -82.3503 224° Southwest 193 222 13,800  Level Indianapolis Center
Wed 11:09:35 AM 36.8542 -82.3997 226° Southwest 197 227 13,800  Level Indianapolis Center
Wed 11:10:37 AM 36.8089 -82.4558 225° Southwest 197 227 13,800  Level Indianapolis Center
Wed 11:11:38 AM 36.7697 -82.5050 225° Southwest 198 228 13,800  Level Indianapolis Center
Wed 11:12:40 AM 36.7306 -82.5517 224° Southwest 194 223 13,800  Level Indianapolis Center
Wed 11:13:42 AM 36.6925 -82.5997 225° Southwest 193 222 13,800  Level Indianapolis Center
Wed 11:14:43 AM 36.6536 -82.6469 224° Southwest 194 223 13,800  Level Indianapolis Center
Wed 11:15:45 AM 36.6161 -82.6950 226° Southwest 192 221 13,800  Level Indianapolis Center
Wed 11:16:12 AM 36.5933 -82.7200 221° Southwest 194 223 13,800  Level Atlanta Center
Wed 11:17:12 AM 36.5542 -82.7672 224° Southwest 194 223 13,800  Level Atlanta Center
Wed 11:18:12 AM 36.5172 -82.8142 226° Southwest 194 223 13,800 50 Level Atlanta Center
Wed 11:19:12 AM 36.4803 -82.8614 226° Southwest 199 229 13,900 50 Climbing Atlanta Center
Wed 11:20:12 AM 36.4389 -82.9083 222° Southwest 199 229 13,900  Level Atlanta Center
Wed 11:21:12 AM 36.4039 -82.9528 226° Southwest 199 229 13,900  Level Atlanta Center
Wed 11:22:12 AM 36.3647 -82.9997 224° Southwest 199 229 13,900  Level Atlanta Center
Wed 11:23:12 AM 36.3275 -83.0492 227° Southwest 199 229 13,900  Level Atlanta Center
Wed 11:24:12 AM 36.2883 -83.0961 224° Southwest 199 229 13,900  Level Atlanta Center
Wed 11:25:12 AM 36.2489 -83.1428 224° Southwest 199 229 13,900  Level Atlanta Center
Wed 11:26:12 AM 36.2097 -83.1894 224° Southwest 199 229 13,900  Level Atlanta Center
Wed 11:27:12 AM 36.1725 -83.2361 225° Southwest 199 229 13,900  Level Atlanta Center
Wed 11:28:12 AM 36.1372 -83.2778 224° Southwest 194 223 13,900  Level Atlanta Center
Wed 11:29:12 AM 36.1000 -83.3244 225° Southwest 194 223 13,900  Level Atlanta Center
Wed 11:30:12 AM 36.0586 -83.3736 224° Southwest 194 223 13,900  Level Atlanta Center
Wed 11:31:12 AM 36.0211 -83.4175 223° Southwest 199 229 13,900  Level Atlanta Center
Wed 11:32:12 AM 35.9778 -83.4692 224° Southwest 199 229 13,900  Level Atlanta Center
Wed 11:33:12 AM 35.9425 -83.5181 228° Southwest 199 229 13,900  Level Atlanta Center
Wed 11:34:12 AM 35.9008 -83.5644 222° Southwest 199 229 13,900  Level Atlanta Center
Wed 11:35:12 AM 35.8614 -83.6108 224° Southwest 199 229 13,900 50 Level Atlanta Center
Wed 11:36:12 AM 35.8242 -83.6572 225° Southwest 199 229 14,000 50 Climbing Atlanta Center
Wed 11:37:12 AM 35.7844 -83.7008 222° Southwest 199 229 14,000  Level Atlanta Center
Wed 11:38:12 AM 35.7514 -83.7444 227° Southwest 199 229 14,000  Level Atlanta Center
Wed 11:39:12 AM 35.7117 -83.7881 222° Southwest 199 229 14,000  Level Atlanta Center
Wed 11:40:12 AM 35.6722 -83.8342 224° Southwest 199 229 14,000  Level Atlanta Center
Wed 11:41:12 AM 35.6347 -83.8828 227° Southwest 199 229 14,000  Level Atlanta Center
Wed 11:42:12 AM 35.5931 -83.9289 222° Southwest 199 229 14,000  Level Atlanta Center
Wed 11:43:12 AM 35.5556 -83.9750 225° Southwest 199 229 14,000  Level Atlanta Center
Wed 11:44:12 AM 35.5158 -84.0208 223° Southwest 199 229 14,000  Level Atlanta Center
Wed 11:45:12 AM 35.4764 -84.0667 223° Southwest 199 229 14,000  Level Atlanta Center
Wed 11:46:12 AM 35.4386 -84.1153 226° Southwest 199 229 14,000  Level Atlanta Center
Wed 11:47:12 AM 35.3989 -84.1586 222° Southwest 199 229 14,000  Level Atlanta Center
Wed 11:48:12 AM 35.3614 -84.2042 225° Southwest 199 229 14,000  Level Atlanta Center
Wed 11:49:12 AM 35.3217 -84.2500 223° Southwest 199 229 14,000  Level Atlanta Center
Wed 11:50:12 AM 35.2819 -84.2958 223° Southwest 199 229 14,000  Level Atlanta Center
Wed 11:51:12 AM 35.2422 -84.3414 223° Southwest 199 229 14,000  Level Atlanta Center
Wed 11:52:12 AM 35.2044 -84.3869 225° Southwest 199 229 14,000  Level Atlanta Center
Wed 11:53:12 AM 35.1669 -84.4325 225° Southwest 199 229 14,000  Level Atlanta Center
Wed 11:54:12 AM 35.1269 -84.4781 223° Southwest 199 229 14,000  Level Atlanta Center
Wed 11:55:12 AM 35.0894 -84.5261 226° Southwest 199 229 14,000  Level Atlanta Center
Wed 11:56:12 AM 35.0536 -84.5742 228° Southwest 199 229 14,000  Level Atlanta Center
Wed 11:57:12 AM 35.0181 -84.6219 228° Southwest 194 223 14,000  Level Atlanta Center
Wed 11:58:12 AM 34.9803 -84.6675 225° Southwest 194 223 14,000  Level Atlanta Center
Wed 11:59:12 AM 34.9403 -84.7103 221° Southwest 194 223 14,000 -100 Level Atlanta Center
Wed 12:00:12 PM 34.9003 -84.7556 223° Southwest 199 229 13,800 -250 Descending Atlanta Center
Wed 12:01:12 PM 34.8606 -84.8058 226° Southwest 199 229 13,500 -300 Descending Atlanta Center
Wed 12:02:12 PM 34.8183 -84.8508 221° Southwest 199 229 13,200 -250 Descending Atlanta Center
Wed 12:03:12 PM 34.7786 -84.8936 221° Southwest 199 229 13,000 -200 Descending Atlanta Center
Wed 12:04:12 PM 34.7406 -84.9411 226° Southwest 199 229 12,800 -250 Descending Atlanta Center
Wed 12:05:12 PM 34.7006 -84.9836 221° Southwest 199 229 12,500 -200 Descending Atlanta Center
Wed 12:06:12 PM 34.6564 -85.0311 222° Southwest 194 223 12,400 -200 Descending Atlanta Center
Wed 12:07:12 PM 34.6225 -85.0814 231° Southwest 191 220 12,100 -350 Descending Atlanta Center
Wed 12:08:12 PM 34.5764 -85.1236 217° Southwest 203 234 11,700 -200 Descending Atlanta Center
Wed 12:09:12 PM 34.5383 -85.1711 226° Southwest 203 234 11,700 -100 Level Atlanta Center
Wed 12:10:12 PM 34.5003 -85.2108 221° Southwest 203 234 11,500 -200 Descending Atlanta Center
Wed 12:11:12 PM 34.4625 -85.2556 224° Southwest 198 228 11,300 -150 Descending Atlanta Center
Wed 12:12:12 PM 34.4225 -85.2928 218° Southwest 193 222 11,200 -200 Descending Atlanta Center
Wed 12:13:12 PM 34.3742 -85.3147 201° Southwest 186 214 10,900 -350 Descending Atlanta Center
Wed 12:14:12 PM 34.3300 -85.3342 200° South 186 214 10,500 -600 Descending Atlanta Center
Wed 12:15:12 PM 34.2839 -85.3611 206° Southwest 186 214 9,700 -800 Descending Atlanta Center
Wed 12:16:12 PM 34.2356 -85.3956 211° Southwest 200 230 8,900 -750 Descending Atlanta Center
Wed 12:17:12 PM 34.1933 -85.4275 212° Southwest 200 230 8,200 -650 Descending Atlanta Center
Wed 12:18:12 PM 34.1472 -85.4594 210° Southwest 200 230 7,600 -650 Descending Atlanta Center
Wed 12:19:12 PM 34.0967 -85.4939 209° Southwest 200 230 6,900 -900 Descending Atlanta Center
Wed 12:20:12 PM 34.0503 -85.5231 208° Southwest 195 224 5,800 -1,182 Descending Atlanta Center
Wed 12:21:24 PM 33.9894 -85.5469 198° South 200 230 4,300 -1,136 Descending Atlanta Center
Wed 12:22:24 PM 33.9392 -85.5761 206° Southwest 200 230 3,300 -650 Descending Atlanta Center
Wed 12:23:24 PM 33.8906 -85.6103 210° Southwest 200 230 3,000 -300 Descending Atlanta Center

Login

Don't have an account? Register now (free) for customized features, flight alerts, and more!